Time;durP1;ratioP1;P1;durP2;ratioP2;P2;SDS_P1;SDS_P2;PMS_P1;PMS_P2;Temp;Humidity;BMP_temperature;BMP_pressure;BME280_temperature;BME280_humidity;BME280_pressure;Samples;Min_cycle;Max_cycle;Signal;HPM_P1;HPM_P2
2022/02/01 00:02:04;;;;;;;6.15;3.80;;;;;;;;;;5193705;28;20061;-74
2022/02/01 00:04:47;;;;;;;6.43;3.72;;;;;;;;;;5183136;28;20158;-75
2022/02/01 00:07:35;;;;;;;7.55;4.50;;;;;;;;;;5173368;28;20049;-75
2022/02/01 00:10:33;;;;;;;7.78;3.92;;;;;;;;;;5188031;28;20412;-75
2022/02/01 00:13:15;;;;;;;5.65;3.38;;;;;;;;;;5167821;28;21842;-75
2022/02/01 00:35:58;;;;;;;6.07;3.40;;;;;;;;;;5188055;28;20049;-75
2022/02/01 00:38:52;;;;;;;5.18;3.38;;;;;;;;;;5178687;28;20978;-74
2022/02/01 00:41:29;;;;;;;6.63;3.70;;;;;;;;;;5168846;28;20836;-75
2022/02/01 00:44:03;;;;;;;6.07;3.30;;;2.90;99.90;;;;;;5187459;28;20053;-75
2022/02/01 00:46:36;;;;;;;5.47;3.17;;;;;;;;;;5181150;28;20091;-74
2022/02/01 00:49:08;;;;;;;4.23;3.40;;;;;;;;;;5182579;28;20056;-75
2022/02/01 00:51:41;;;;;;;4.88;2.63;;;;;;;;;;5190637;28;20072;-75
2022/02/01 00:54:15;;;;;;;3.53;2.67;;;;;;;;;;5190948;28;20067;-74
2022/02/01 00:56:51;;;;;;;5.53;3.30;;;;;;;;;;5163140;28;20053;-75
2022/02/01 00:59:25;;;;;;;4.20;2.83;;;;;;;;;;5152720;28;20067;-75
2022/02/01 01:01:58;;;;;;;4.35;2.55;;;;;;;;;;5160743;28;20049;-75
2022/02/01 01:04:31;;;;;;;2.75;2.30;;;;;;;;;;5185089;28;20045;-74
2022/02/01 01:07:04;;;;;;;5.87;2.40;;;;;;;;;;5156921;28;20452;-75
2022/02/01 01:09:37;;;;;;;4.90;2.75;;;;;;;;;;5154046;28;20541;-75
2022/02/01 01:12:12;;;;;;;2.93;2.33;;;;;;;;;;5170714;28;20060;-75
2022/02/01 01:54:07;;;;;;;2.53;2.08;;;;;;;;;;5163420;28;20045;-75
2022/02/01 01:56:40;;;;;;;2.73;2.47;;;;;;;;;;5146561;28;20060;-75
2022/02/01 01:59:13;;;;;;;4.38;2.92;;;;;;;;;;5165501;28;20053;-75
2022/02/01 02:01:46;;;;;;;3.73;2.93;;;;;;;;;;5175997;28;20052;-75
2022/02/01 02:04:19;;;;;;;6.18;3.13;;;;;;;;;;5152412;28;21240;-75
2022/02/01 02:06:53;;;;;;;5.73;3.60;;;;;;;;;;5188418;28;20033;-75
2022/02/01 02:09:26;;;;;;;6.53;3.72;;;;;;;;;;5141703;28;20314;-76
2022/02/01 02:12:11;;;;;;;4.38;3.75;;;;;;;;;;5145689;28;20053;-75
2022/02/01 02:14:46;;;;;;;6.68;4.00;;;2.10;99.90;;;;;;5179045;28;20626;-75
2022/02/01 02:17:20;;;;;;;6.28;4.57;;;2.20;99.90;;;;;;5192625;28;20041;-76
2022/02/01 02:19:52;;;;;;;;;;;2.10;99.90;;;;;;5158245;28;20483;-75
2022/02/01 02:22:25;;;;;;;9.88;4.88;;;;;;;;;;5171628;28;20407;-75
2022/02/01 02:24:58;;;;;;;7.43;5.03;;;;;;;;;;5174163;28;20055;-75
2022/02/01 02:27:30;;;;;;;7.63;5.40;;;;;;;;;;5151990;28;20056;-75
2022/02/01 02:30:04;;;;;;;6.23;4.77;;;;;;;;;;5157559;28;20400;-74
2022/02/01 02:32:37;;;;;;;10.27;6.57;;;;;;;;;;5156502;28;20555;-75
2022/02/01 02:35:10;;;;;;;8.93;5.90;;;;;;;;;;5175743;28;20773;-75
2022/02/01 02:37:43;;;;;;;9.87;6.70;;;;;;;;;;5187248;28;20512;-74
2022/02/01 02:40:32;;;;;;;9.32;6.53;;;;;;;;;;5175140;28;20053;-75
2022/02/01 02:45:57;;;;;;;10.02;7.20;;;;;;;;;;5159473;28;20053;-75
2022/02/01 02:48:30;;;;;;;11.07;7.15;;;;;;;;;;5192323;28;20045;-74
2022/02/01 02:51:03;;;;;;;10.45;7.35;;;;;;;;;;5169766;28;20992;-75
2022/02/01 02:53:36;;;;;;;10.32;6.90;;;;;;;;;;5170360;28;20057;-75
2022/02/01 02:56:09;;;;;;;13.50;7.73;;;;;;;;;;5158989;28;20056;-75
2022/02/01 02:58:42;;;;;;;11.18;6.82;;;;;;;;;;5190279;28;20056;-74
2022/02/01 03:01:14;;;;;;;11.52;7.32;;;;;;;;;;5167767;28;20053;-75
2022/02/01 03:03:47;;;;;;;12.90;8.63;;;;;;;;;;5189103;28;20045;-75
2022/02/01 03:06:20;;;;;;;13.25;7.90;;;;;;;;;;5150085;28;20041;-75
2022/02/01 03:08:53;;;;;;;12.52;7.93;;;;;;;;;;5172983;28;20505;-74
2022/02/01 03:11:26;;;;;;;12.57;8.05;;;;;;;;;;5161750;28;21428;-75
2022/02/01 03:14:02;;;;;;;15.10;9.00;;;;;;;;;;5163319;28;20052;-75
2022/02/01 03:16:58;;;;;;;13.98;9.02;;;;;;;;;;5161333;28;20049;-75
2022/02/01 03:19:52;;;;;;;13.05;8.40;;;;;;;;;;5165905;28;20496;-74
2022/02/01 03:22:32;;;;;;;15.30;8.65;;;2.10;99.90;;;;;;5158442;28;20049;-75
2022/02/01 03:25:10;;;;;;;13.15;8.25;;;;;;;;;;5154188;28;20049;-75
2022/02/01 03:27:43;;;;;;;13.65;8.43;;;;;;;;;;5145432;28;20052;-75
2022/02/01 03:30:19;;;;;;;14.82;8.82;;;;;;;;;;5170608;28;20440;-75
2022/02/01 03:32:52;;;;;;;15.73;9.63;;;2.00;99.90;;;;;;5179680;28;20050;-75
2022/02/01 03:35:25;;;;;;;16.58;9.52;;;;;;;;;;5201666;28;20045;-75
2022/02/01 03:38:00;;;;;;;16.20;9.50;;;;;;;;;;5160653;28;20053;-75
2022/02/01 03:40:33;;;;;;;14.63;9.30;;;;;;;;;;5166290;28;20041;-74
2022/02/01 03:43:06;;;;;;;16.10;10.02;;;;;;;;;;5172449;28;20060;-74
2022/02/01 03:45:39;;;;;;;17.23;9.77;;;;;;;;;;5185777;28;20342;-75
2022/02/01 03:48:12;;;;;;;14.82;9.18;;;;;;;;;;5139337;28;20045;-74
2022/02/01 03:50:44;;;;;;;14.53;8.87;;;;;;;;;;5168181;28;20440;-75
2022/02/01 03:53:18;;;;;;;13.70;9.18;;;;;;;;;;5168999;28;20048;-74
2022/02/01 03:55:51;;;;;;;14.52;9.10;;;;;;;;;;5162375;28;20072;-75
2022/02/01 03:58:24;;;;;;;14.82;8.30;;;;;;;;;;5186185;28;20053;-75
2022/02/01 04:00:56;;;;;;;11.55;7.50;;;;;;;;;;5158413;28;20056;-74
2022/02/01 04:03:30;;;;;;;15.27;8.70;;;;;;;;;;5185877;28;20049;-75
2022/02/01 04:06:02;;;;;;;20.25;9.43;;;;;;;;;;5163005;28;20737;-74
2022/02/01 04:08:39;;;;;;;17.95;9.73;;;;;;;;;;5178549;28;20419;-74
2022/02/01 04:11:12;;;;;;;19.98;9.75;;;;;;;;;;5169931;28;20389;-74
2022/02/01 04:13:45;;;;;;;18.13;9.43;;;;;;;;;;5165403;28;20500;-75
2022/02/01 04:16:18;;;;;;;18.88;10.13;;;;;;;;;;5163476;28;20300;-75
2022/02/01 04:18:50;;;;;;;16.47;9.30;;;;;;;;;;5190237;28;20041;-75
2022/02/01 04:21:23;;;;;;;16.55;9.30;;;;;;;;;;5190860;28;20299;-75
2022/02/01 04:23:56;;;;;;;21.60;9.50;;;;;;;;;;5156104;28;20049;-75
2022/02/01 04:26:28;;;;;;;19.85;10.18;;;;;;;;;;5169636;28;20048;-75
2022/02/01 04:29:01;;;;;;;22.40;10.23;;;;;;;;;;5171435;28;20053;-77
2022/02/01 04:31:34;;;;;;;22.00;11.15;;;;;;;;;;5187462;28;20056;-77
2022/02/01 04:34:06;;;;;;;20.90;11.38;;;;;;;;;;5184873;28;20053;-76
2022/02/01 04:36:39;;;;;;;17.45;9.60;;;;;;;;;;5186975;28;20049;-74
2022/02/01 04:39:12;;;;;;;20.90;11.10;;;;;;;;;;5161116;28;20045;-74
2022/02/01 04:41:46;;;;;;;19.52;11.05;;;;;;;;;;5163778;28;20049;-74
2022/02/01 04:44:20;;;;;;;20.25;10.07;;;;;;;;;;5180823;28;20041;-75
2022/02/01 04:46:52;;;;;;;;;;;1.80;99.90;;;;;;5178841;28;20041;-75
2022/02/01 04:49:25;;;;;;;18.92;10.15;;;;;;;;;;5160206;28;19925;-74
2022/02/01 04:51:58;;;;;;;25.60;11.55;;;;;;;;;;5178261;28;20037;-74
2022/02/01 04:54:30;;;;;;;18.92;9.73;;;;;;;;;;5157221;28;20052;-77
2022/02/01 04:57:03;;;;;;;17.10;9.85;;;;;;;;;;5161077;28;20049;-76
2022/02/01 04:59:36;;;;;;;18.95;9.88;;;;;;;;;;5180406;28;20053;-73
2022/02/01 05:02:09;;;;;;;18.17;9.75;;;;;;;;;;5173266;28;20908;-76
2022/02/01 05:04:41;;;;;;;17.03;9.47;;;;;;;;;;5163293;28;20841;-76
2022/02/01 05:07:19;;;;;;;19.67;8.95;;;;;;;;;;5162869;28;20687;-75
2022/02/01 05:09:54;;;;;;;19.38;9.13;;;;;;;;;;5174458;28;20996;-76
2022/02/01 05:12:34;;;;;;;19.33;10.15;;;;;;;;;;5182508;28;20040;-76
2022/02/01 05:15:08;;;;;;;16.90;9.68;;;;;;;;;;5179192;28;20049;-76
2022/02/01 05:17:51;;;;;;;21.30;9.48;;;;;;;;;;5168704;28;20061;-75
2022/02/01 05:20:42;;;;;;;18.93;9.13;;;;;;;;;;5168379;28;20072;-75
2022/02/01 05:23:16;;;;;;;19.13;9.40;;;;;;;;;;5180437;28;20550;-75
2022/02/01 05:25:50;;;;;;;18.58;9.65;;;;;;;;;;5154452;28;20053;-76
2022/02/01 05:28:23;;;;;;;19.20;9.45;;;;;;;;;;5171038;28;20084;-76
2022/02/01 05:31:02;;;;;;;18.30;9.98;;;;;;;;;;5162283;28;20048;-76
2022/02/01 05:33:35;;;;;;;18.75;9.68;;;;;;;;;;5179859;28;20041;-76
2022/02/01 05:36:08;;;;;;;18.95;9.57;;;;;;;;;;5187649;28;20045;-76
2022/02/01 05:38:41;;;;;;;18.08;9.20;;;;;;;;;;5163014;28;20064;-76
2022/02/01 05:41:13;;;;;;;16.13;8.73;;;;;;;;;;5166457;28;20061;-76
2022/02/01 05:43:46;;;;;;;16.23;8.70;;;;;;;;;;5163790;28;20532;-75
2022/02/01 05:46:19;;;;;;;15.77;8.43;;;;;;;;;;5169156;28;20037;-83
2022/02/01 05:48:52;;;;;;;16.65;8.15;;;;;;;;;;5177923;28;20053;-76
2022/02/01 05:51:25;;;;;;;16.20;8.15;;;;;;;;;;5174103;28;20053;-76
2022/02/01 05:53:58;;;;;;;16.73;9.05;;;;;;;;;;5174348;28;20416;-77
2022/02/01 05:56:31;;;;;;;17.85;9.32;;;;;;;;;;5176776;28;20049;-76
2022/02/01 05:59:04;;;;;;;20.20;9.52;;;;;;;;;;5157145;28;20049;-76
2022/02/01 06:01:36;;;;;;;20.67;10.32;;;;;;;;;;5167848;28;20064;-77
2022/02/01 06:04:09;;;;;;;21.73;10.13;;;;;;;;;;5165223;28;20230;-76
2022/02/01 06:06:42;;;;;;;18.57;10.57;;;;;;;;;;5133434;28;20053;-76
2022/02/01 06:09:15;;;;;;;20.60;10.35;;;;;;;;;;5155349;28;20052;-76
2022/02/01 06:11:48;;;;;;;24.75;10.70;;;;;;;;;;5131939;28;20060;-76
2022/02/01 06:14:21;;;;;;;21.95;10.93;;;;;;;;;;5181247;28;20049;-77
2022/02/01 06:16:53;;;;;;;20.30;11.13;;;;;;;;;;5182778;28;20771;-77
2022/02/01 06:19:26;;;;;;;19.95;11.07;;;;;;;;;;5202829;28;20060;-77
2022/02/01 06:21:59;;;;;;;23.52;10.50;;;;;;;;;;5184434;28;20295;-76
2022/02/01 06:24:33;;;;;;;21.02;10.93;;;;;;;;;;5170222;28;20064;-76
2022/02/01 06:27:06;;;;;;;20.92;10.55;;;;;;;;;;5185969;28;20689;-75
2022/02/01 06:29:40;;;;;;;20.30;10.95;;;;;;;;;;5189275;28;20064;-76
2022/02/01 06:32:13;;;;;;;26.53;11.00;;;;;;;;;;5180923;28;20807;-77
2022/02/01 06:34:45;;;;;;;24.83;11.90;;;;;;;;;;5180992;28;20059;-77
2022/02/01 06:37:18;;;;;;;25.92;10.93;;;;;;;;;;5171069;28;20052;-77
2022/02/01 06:39:51;;;;;;;20.85;10.82;;;;;;;;;;5198816;28;20473;-76
2022/02/01 06:42:23;;;;;;;21.50;10.32;;;;;;;;;;5181159;28;20408;-77
2022/02/01 06:44:56;;;;;;;20.70;10.18;;;;;;;;;;5198364;28;20392;-77
2022/02/01 06:47:29;;;;;;;19.23;10.65;;;;;;;;;;5182018;28;20037;-77
2022/02/01 06:50:01;;;;;;;20.27;9.80;;;;;;;;;;5162782;28;20080;-76
2022/02/01 06:52:35;;;;;;;20.13;10.30;;;;;;;;;;5201305;28;20245;-77
2022/02/01 06:55:09;;;;;;;19.98;10.88;;;;;;;;;;5199442;28;20041;-77
2022/02/01 06:57:42;;;;;;;16.27;9.90;;;;;;;;;;5169619;28;20057;-77
2022/02/01 07:00:15;;;;;;;20.80;10.70;;;;;;;;;;5204654;28;20056;-77
2022/02/01 07:02:48;;;;;;;22.05;11.23;;;;;;;;;;5181750;28;20045;-77
2022/02/01 07:05:21;;;;;;;20.80;10.57;;;;;;;;;;5185469;28;20041;-77
2022/02/01 07:07:54;;;;;;;20.13;10.45;;;;;;;;;;5188610;28;20052;-77
2022/02/01 07:10:26;;;;;;;18.08;9.68;;;;;;;;;;5191101;28;20051;-78
2022/02/01 07:12:59;;;;;;;18.63;9.30;;;;;;;;;;5182730;28;20057;-77
2022/02/01 07:15:32;;;;;;;20.13;9.85;;;;;;;;;;5186940;28;20071;-77
2022/02/01 07:18:05;;;;;;;15.32;8.27;;;;;;;;;;5169958;28;20060;-77
2022/02/01 07:20:37;;;;;;;12.07;7.05;;;;;;;;;;5194129;28;20064;-76
2022/02/01 07:23:12;;;;;;;14.73;8.20;;;;;;;;;;5195360;28;20567;-76
2022/02/01 07:25:47;;;;;;;16.27;7.90;;;;;;;;;;5196486;28;20225;-77
2022/02/01 07:28:22;;;;;;;14.88;6.85;;;2.30;99.90;;;;;;5192098;28;20143;-77
2022/02/01 07:30:58;;;;;;;12.88;6.80;;;2.30;99.90;;;;;;5189334;28;20045;-76
2022/02/01 07:33:31;;;;;;;13.05;7.18;;;;;;;;;;5183538;28;20045;-77
2022/02/01 07:36:05;;;;;;;12.37;6.60;;;2.30;99.90;;;;;;5197482;28;20068;-77
2022/02/01 07:38:37;;;;;;;14.60;7.95;;;;;;;;;;5195899;28;20049;-77
2022/02/01 07:41:10;;;;;;;18.15;7.13;;;;;;;;;;5154817;28;20182;-77
2022/02/01 07:43:43;;;;;;;17.35;7.25;;;;;;;;;;5150202;28;20049;-78
2022/02/01 07:46:16;;;;;;;20.70;7.00;;;;;;;;;;5194240;28;20049;-78
2022/02/01 07:48:49;;;;;;;18.52;7.55;;;;;;;;;;5177383;28;20894;-76
2022/02/01 07:51:21;;;;;;;23.57;6.33;;;;;;;;;;5175492;28;20037;-76
2022/02/01 07:53:54;;;;;;;29.10;7.45;;;;;;;;;;5195138;28;20485;-76
2022/02/01 07:56:27;;;;;;;23.77;6.07;;;;;;;;;;5197082;28;20056;-77
2022/02/01 07:58:59;;;;;;;23.02;5.93;;;;;;;;;;5178863;28;20049;-76
2022/02/01 08:01:33;;;;;;;22.15;6.10;;;;;;;;;;5177718;28;20613;-76
2022/02/01 08:04:06;;;;;;;22.20;5.75;;;;;;;;;;5180227;28;20648;-77
2022/02/01 08:06:39;;;;;;;32.08;6.70;;;;;;;;;;5195323;28;20037;-77
2022/02/01 08:09:23;;;;;;;29.08;6.95;;;;;;;;;;5197579;28;20713;-76
2022/02/01 08:11:55;;;;;;;;;;;1.90;99.90;;;;;;5196791;28;20849;-77
2022/02/01 08:20:12;;;;;;;31.58;6.53;;;;;;;;;;5196651;28;20060;-77
2022/02/01 08:25:17;;;;;;;29.80;6.80;;;;;;;;;;5167377;28;20471;-77
2022/02/01 08:27:52;;;;;;;26.97;5.97;;;;;;;;;;5197233;28;20065;-75
2022/02/01 08:30:25;;;;;;;24.75;6.03;;;;;;;;;;5164361;28;20288;-77
2022/02/01 08:32:58;;;;;;;36.23;7.20;;;1.70;99.90;;;;;;5196695;28;20040;-76
2022/02/01 08:35:31;;;;;;;25.08;6.80;;;;;;;;;;5196466;28;20037;-77
2022/02/01 08:38:22;;;;;;;36.10;6.15;;;;;;;;;;5176508;28;20056;-76
2022/02/01 08:40:54;;;;;;;41.80;7.93;;;;;;;;;;5196918;28;20477;-76
2022/02/01 08:43:28;;;;;;;33.40;6.22;;;;;;;;;;5193957;28;20045;-77
2022/02/01 08:46:01;;;;;;;32.35;5.78;;;1.70;99.90;;;;;;5198298;28;20485;-77
2022/02/01 08:48:34;;;;;;;;;;;1.70;99.90;;;;;;5195308;28;20044;-76
2022/02/01 08:51:09;;;;;;;31.10;6.75;;;;;;;;;;5177817;28;19929;-77
2022/02/01 08:53:57;;;;;;;24.30;5.50;;;;;;;;;;5196177;28;20052;-77
2022/02/01 08:59:32;;;;;;;29.73;6.07;;;;;;;;;;5192858;28;20072;-77
2022/02/01 09:02:06;;;;;;;25.30;5.97;;;1.70;99.90;;;;;;5182076;28;20063;-75
2022/02/01 09:04:39;;;;;;;29.80;5.72;;;;;;;;;;5172946;28;20045;-77
2022/02/01 09:07:12;;;;;;;23.90;5.55;;;;;;;;;;5196724;28;20481;-77
2022/02/01 09:09:45;;;;;;;35.58;7.07;;;;;;;;;;5179444;28;20045;-76
2022/02/01 09:12:18;;;;;;;28.73;5.85;;;;;;;;;;5196743;28;20048;-77
2022/02/01 09:14:51;;;;;;;25.75;5.72;;;;;;;;;;5196339;28;20056;-76
2022/02/01 09:17:24;;;;;;;24.85;5.28;;;;;;;;;;5203477;28;20068;-76
2022/02/01 09:19:58;;;;;;;28.43;5.23;;;;;;;;;;5201189;28;20072;-77
2022/02/01 09:22:31;;;;;;;24.65;5.57;;;;;;;;;;5189947;28;20052;-77
2022/02/01 09:25:04;;;;;;;22.85;5.38;;;;;;;;;;5205494;28;20048;-77
2022/02/01 09:27:37;;;;;;;35.43;6.17;;;;;;;;;;5204225;28;20068;-77
2022/02/01 09:30:10;;;;;;;17.60;5.43;;;;;;;;;;5188094;28;20294;-77
2022/02/01 09:32:43;;;;;;;31.30;6.60;;;;;;;;;;5205712;28;20061;-76
2022/02/01 09:35:16;;;;;;;21.23;4.57;;;;;;;;;;5187007;28;20969;-80
2022/02/01 09:37:48;;;;;;;20.75;5.55;;;;;;;;;;5203049;28;20037;-76
2022/02/01 09:40:42;;;;;;;28.23;5.15;;;;;;;;;;5201341;28;20065;-76
2022/02/01 09:43:17;;;;;;;23.50;5.03;;;;;;;;;;5203635;28;20048;-77
2022/02/01 09:45:56;;;;;;;17.00;4.85;;;2.10;99.90;;;;;;5203304;28;20036;-77
2022/02/01 09:48:49;;;;;;;27.77;6.85;;;;;;;;;;5195243;28;20905;-76
2022/02/01 09:51:21;;;;;;;25.30;4.63;;;;;;;;;;5202492;28;20605;-78
2022/02/01 09:54:14;;;;;;;21.63;4.63;;;;;;;;;;5192958;28;20041;-76
2022/02/01 09:56:47;;;;;;;16.35;4.82;;;;;;;;;;5174686;28;20041;-77
2022/02/01 09:59:31;;;;;;;16.48;4.78;;;2.30;99.90;;;;;;5208719;28;20049;-77
2022/02/01 10:02:10;;;;;;;12.32;3.90;;;2.30;99.90;;;;;;5173551;28;20041;-78
2022/02/01 10:04:43;;;;;;;21.60;4.70;;;;;;;;;;5208786;28;20060;-77
2022/02/01 10:07:16;;;;;;;17.50;4.10;;;;;;;;;;5190692;28;20282;-77
2022/02/01 10:09:59;;;;;;;20.02;4.85;;;2.30;99.90;;;;;;5188762;28;20048;-77
2022/02/01 10:12:39;;;;;;;22.85;4.90;;;;;;;;;;5208328;28;20048;-77
2022/02/01 10:15:20;;;;;;;15.95;3.85;;;2.30;99.90;;;;;;5190402;28;20056;-77
2022/02/01 10:17:59;;;;;;;27.75;4.15;;;2.40;99.90;;;;;;5206407;28;20053;-78
2022/02/01 10:20:39;;;;;;;15.05;3.78;;;2.40;99.90;;;;;;5168612;28;20056;-76
2022/02/01 10:23:22;;;;;;;24.10;5.82;;;2.40;99.90;;;;;;5191095;28;20045;-76
2022/02/01 10:25:59;;;;;;;23.33;4.72;;;2.40;99.90;;;;;;5183561;28;20072;-77
2022/02/01 10:29:04;;;;;;;23.15;3.65;;;2.40;99.90;;;;;;5191274;28;20041;-76
2022/02/01 10:31:49;;;;;;;13.68;3.58;;;2.40;99.90;;;;;;5197359;28;20048;-76
2022/02/01 10:37:25;;;;;;;12.50;3.38;;;2.40;99.90;;;;;;5194912;28;20060;-76
2022/02/01 10:40:00;;;;;;;19.15;3.50;;;2.50;99.90;;;;;;5182047;28;20067;-76
2022/02/01 10:42:33;;;;;;;11.85;3.38;;;;;;;;;;5182920;28;20505;-77
2022/02/01 10:45:08;;;;;;;14.27;3.57;;;2.50;99.90;;;;;;5199513;28;21821;-75
2022/02/01 10:47:43;;;;;;;17.45;3.63;;;;;;;;;;5201324;28;20907;-76
2022/02/01 10:50:18;;;;;;;20.42;4.43;;;2.60;99.90;;;;;;5179902;28;20044;-77
2022/02/01 10:52:51;;;;;;;22.02;4.15;;;2.70;99.90;;;;;;5202189;28;20591;-76
2022/02/01 10:55:24;;;;;;;30.10;4.93;;;;;;;;;;5204008;28;20045;-76
2022/02/01 10:57:57;;;;;;;16.90;4.55;;;;;;;;;;5201853;28;20041;-75
2022/02/01 11:00:30;;;;;;;11.18;3.60;;;;;;;;;;5203433;28;20068;-77
2022/02/01 11:03:04;;;;;;;16.88;3.55;;;2.80;99.90;;;;;;5184484;28;20052;-76
2022/02/01 11:05:37;;;;;;;14.30;3.30;;;2.80;99.90;;;;;;5204726;28;20060;-76
2022/02/01 11:08:15;;;;;;;12.15;3.88;;;2.90;99.90;;;;;;5204482;28;20037;-76
2022/02/01 11:10:51;;;;;;;17.88;3.80;;;2.80;99.90;;;;;;5185570;28;20049;-77
2022/02/01 11:13:35;;;;;;;15.10;3.70;;;2.80;99.90;;;;;;5201638;28;20053;-77
2022/02/01 11:16:13;;;;;;;17.05;3.80;;;2.80;99.90;;;;;;5168584;28;20420;-76
2022/02/01 11:18:56;;;;;;;14.38;3.50;;;2.80;99.90;;;;;;5183588;28;20041;-77
2022/02/01 11:21:29;;;;;;;12.70;3.80;;;;;;;;;;5183977;28;20045;-77
2022/02/01 11:24:07;;;;;;;12.55;4.05;;;;;;;;;;5185789;28;20311;-77
2022/02/01 11:26:50;;;;;;;13.07;3.50;;;;;;;;;;5182941;28;20594;-76
2022/02/01 11:32:02;;;;;;;10.38;3.55;;;3.00;99.90;;;;;;5198558;28;20049;-76
2022/02/01 11:35:05;;;;;;;9.82;3.78;;;3.00;99.90;;;;;;5195317;28;20044;-76
2022/02/01 11:38:04;;;;;;;9.55;3.28;;;3.00;99.90;;;;;;5196892;28;20055;-76
2022/02/01 11:40:46;;;;;;;13.85;3.63;;;3.00;99.90;;;;;;5178953;28;20951;-77
2022/02/01 11:43:40;;;;;;;12.13;3.78;;;;;;;;;;5178506;28;20492;-76
2022/02/01 11:46:18;;;;;;;10.15;3.45;;;3.10;99.90;;;;;;5176712;28;20049;-77
2022/02/01 11:48:52;;;;;;;12.07;3.22;;;3.10;99.90;;;;;;5196818;28;20401;-77
2022/02/01 11:51:45;;;;;;;12.90;3.28;;;;;;;;;;5209469;28;20514;-77
2022/02/01 11:54:24;;;;;;;17.33;3.40;;;3.20;99.90;;;;;;5197992;28;20044;-77
2022/02/01 11:57:10;;;;;;;13.88;4.85;;;3.20;99.90;;;;;;5152264;28;20045;-77
2022/02/01 11:59:59;;;;;;;14.10;3.55;;;3.20;99.90;;;;;;5165701;28;20056;-77
2022/02/01 12:02:38;;;;;;;10.25;3.65;;;3.20;99.90;;;;;;5199933;28;20044;-77
2022/02/01 12:05:12;;;;;;;10.32;3.30;;;;;;;;;;5201692;28;20033;-77
2022/02/01 12:08:07;;;;;;;8.27;3.22;;;3.20;99.90;;;;;;5183223;28;20607;-76
2022/02/01 12:10:41;;;;;;;;;;;3.20;99.90;;;;;;5197215;28;20068;-76
2022/02/01 12:13:16;;;;;;;12.15;3.88;;;3.20;99.90;;;;;;5179291;28;20426;-77
2022/02/01 12:15:54;;;;;;;11.85;3.72;;;3.20;99.90;;;;;;5173314;28;20056;-76
2022/02/01 12:18:44;;;;;;;10.35;3.47;;;3.20;99.90;;;;;;5188076;28;20041;-77
2022/02/01 12:21:17;;;;;;;13.80;3.20;;;;;;;;;;5189492;28;20049;-77
2022/02/01 12:23:50;;;;;;;14.77;3.80;;;3.20;99.90;;;;;;5185587;28;20045;-77
2022/02/01 12:26:25;;;;;;;15.45;4.00;;;3.30;99.90;;;;;;5192532;28;20121;-77
2022/02/01 12:28:59;;;;;;;11.32;3.20;;;3.30;99.90;;;;;;5180126;28;20229;-76
2022/02/01 12:31:34;;;;;;;10.70;3.55;;;3.30;99.90;;;;;;5190433;28;20472;-76
2022/02/01 12:34:12;;;;;;;10.07;3.47;;;3.30;99.90;;;;;;5172084;28;20436;-77
2022/02/01 12:36:51;;;;;;;10.77;3.00;;;3.30;99.90;;;;;;5147265;28;20057;-77
2022/02/01 12:39:32;;;;;;;18.63;3.55;;;3.30;99.90;;;;;;5189402;28;20511;-77
2022/02/01 12:42:26;;;;;;;5.03;3.15;;;3.20;99.90;;;;;;5193726;28;20418;-76
2022/02/01 12:48:01;;;;;;;15.60;3.63;;;3.30;99.90;;;;;;5190057;28;20045;-76
2022/02/01 12:50:34;;;;;;;11.50;3.53;;;;;;;;;;5194407;28;20489;-76
2022/02/01 12:53:07;;;;;;;9.45;3.10;;;;;;;;;;5176336;28;20045;-76
2022/02/01 12:55:40;;;;;;;10.63;3.20;;;3.10;99.90;;;;;;5182444;28;20500;-76
2022/02/01 12:58:17;;;;;;;8.52;3.45;;;3.20;99.90;;;;;;5192943;28;20516;-75
2022/02/01 13:00:54;;;;;;;11.73;3.30;;;;;;;;;;5153772;28;20057;-75
2022/02/01 13:03:27;;;;;;;14.07;5.10;;;;;;;;;;5152734;28;20072;-77
2022/02/01 13:06:02;;;;;;;8.87;3.53;;;;;;;;;;5200200;28;20501;-77
2022/02/01 13:08:49;;;;;;;7.65;3.33;;;;;;;;;;5175763;28;20053;-77
2022/02/01 13:14:25;;;;;;;8.68;3.20;;;;;;;;;;5190599;28;20064;-76
2022/02/01 13:17:15;;;;;;;8.48;3.47;;;;;;;;;;5181317;28;20052;-76
2022/02/01 13:20:11;;;;;;;12.10;3.90;;;3.10;99.90;;;;;;5172286;28;20496;-78
2022/02/01 13:23:05;;;;;;;13.07;3.78;;;;;;;;;;4135539;28;10000783;-73
2022/02/01 13:25:44;;;;;;;6.82;2.80;;;3.10;99.90;;;;;;5173302;28;20045;-75
2022/02/01 13:28:17;;;;;;;10.65;3.78;;;;;;;;;;5172755;28;20041;-76
2022/02/01 13:30:49;;;;;;;11.05;3.95;;;;;;;;;;5178140;28;20041;-75
2022/02/01 13:33:22;;;;;;;7.68;3.17;;;;;;;;;;5176119;28;20049;-75
2022/02/01 13:35:55;;;;;;;8.57;3.70;;;2.90;99.90;;;;;;5179172;28;20057;-75
2022/02/01 13:38:29;;;;;;;6.78;2.70;;;;;;;;;;5171976;28;20061;-75
2022/02/01 13:41:09;;;;;;;8.27;3.90;;;3.00;99.90;;;;;;5177323;28;20056;-75
2022/02/01 13:43:50;;;;;;;10.80;3.40;;;3.00;99.90;;;;;;5173529;28;20053;-74
2022/02/01 13:46:28;;;;;;;10.65;3.55;;;3.10;99.90;;;;;;5162065;28;20041;-75
2022/02/01 13:49:01;;;;;;;9.98;3.28;;;3.00;99.90;;;;;;5179730;28;20047;-75
2022/02/01 13:51:48;;;;;;;7.10;3.03;;;3.10;99.90;;;;;;5155211;28;20052;-76
2022/02/01 13:54:21;;;;;;;7.40;3.17;;;;;;;;;;5168626;28;20052;-75
2022/02/01 13:56:54;;;;;;;4.57;2.63;;;;;;;;;;5173625;28;20049;-75
2022/02/01 13:59:29;;;;;;;6.30;2.63;;;;;;;;;;4823810;28;9999741;-75
2022/02/01 14:02:02;;;;;;;4.35;2.20;;;;;;;;;;5157121;28;20052;-75
2022/02/01 14:04:43;;;;;;;8.27;2.73;;;;;;;;;;5178994;28;20417;-74
2022/02/01 14:07:39;;;;;;;8.43;3.35;;;;;;;;;;5187267;28;20311;-75
2022/02/01 14:10:25;;;;;;;10.40;2.80;;;;;;;;;;5174051;28;20049;-77
2022/02/01 14:35:11;;;;;;;9.13;2.28;;;;;;;;;;5184652;28;20047;-75
2022/02/01 14:38:00;;;;;;;6.28;2.47;;;;;;;;;;5192080;28;20056;-75
2022/02/01 14:43:40;;;;;;;6.53;2.55;;;;;;;;;;5182515;28;20037;-75
2022/02/01 14:46:13;;;;;;;11.90;1.90;;;;;;;;;;5168925;28;20048;-75
2022/02/01 14:48:45;;;;;;;7.72;2.58;;;;;;;;;;5171335;28;20065;-76
2022/02/01 14:51:18;;;;;;;8.13;2.47;;;;;;;;;;5164097;28;20052;-77
2022/02/01 14:53:52;;;;;;;7.47;2.70;;;;;;;;;;5162475;28;20048;-76
2022/02/01 14:56:28;;;;;;;8.07;2.40;;;;;;;;;;5189606;28;20049;-77
2022/02/01 15:05:18;;;;;;;6.47;2.88;;;;;;;;;;5190998;28;20048;-76
2022/02/01 15:13:34;;;;;;;3.08;1.90;;;2.70;99.90;;;;;;5170822;28;20049;-76
2022/02/01 15:16:29;;;;;;;5.47;1.60;;;2.70;99.90;;;;;;5187393;28;20053;-76
2022/02/01 15:19:01;;;;;;;3.47;2.00;;;;;;;;;;5169753;28;20067;-76
2022/02/01 15:21:34;;;;;;;3.83;2.30;;;;;;;;;;5193541;28;20045;-76
2022/02/01 15:24:07;;;;;;;5.65;1.95;;;;;;;;;;5168269;28;20049;-76
2022/02/01 15:26:40;;;;;;;3.72;1.90;;;;;;;;;;5172090;28;20275;-76
2022/02/01 15:29:12;;;;;;;4.78;1.83;;;;;;;;;;5193928;28;20049;-76
2022/02/01 15:31:45;;;;;;;5.82;1.95;;;;;;;;;;5196641;28;20694;-76
2022/02/01 15:34:18;;;;;;;4.40;1.60;;;;;;;;;;5137457;28;20092;-78
2022/02/01 15:36:51;;;;;;;4.53;1.85;;;;;;;;;;5181287;28;20205;-78
2022/02/01 15:59:12;;;;;;;5.63;1.80;;;;;;;;;;5177279;28;20111;-75
2022/02/01 16:04:51;;;;;;;4.90;1.65;;;;;;;;;;5189143;28;20046;-76
2022/02/01 16:07:26;;;;;;;4.95;2.10;;;;;;;;;;5154087;28;20037;-77
2022/02/01 16:12:58;;;;;;;4.63;1.70;;;;;;;;;;4823555;28;9999926;-77
2022/02/01 16:15:31;;;;;;;5.28;1.58;;;;;;;;;;5196244;28;20052;-76
2022/02/01 16:18:04;;;;;;;11.45;2.80;;;2.20;99.90;;;;;;5176905;28;20048;-76
2022/02/01 16:20:37;;;;;;;5.55;1.85;;;;;;;;;;5192778;28;20053;-77
2022/02/01 16:23:09;;;;;;;2.85;1.52;;;;;;;;;;5177712;28;20060;-77
2022/02/01 16:25:42;;;;;;;2.55;1.50;;;;;;;;;;5193832;28;20052;-77
2022/02/01 16:28:15;;;;;;;2.10;1.73;;;;;;;;;;5163884;28;20056;-76
2022/02/01 16:30:48;;;;;;;2.72;1.80;;;;;;;;;;5163192;28;20696;-77
2022/02/01 16:33:21;;;;;;;3.85;1.90;;;;;;;;;;5193416;28;20061;-77
2022/02/01 16:35:54;;;;;;;2.73;2.13;;;;;;;;;;5174596;28;20049;-75
2022/02/01 16:38:32;;;;;;;5.50;1.80;;;;;;;;;;5196590;28;20049;-76
2022/02/01 16:41:05;;;;;;;4.85;2.03;;;;;;;;;;5196255;28;20057;-77
2022/02/01 16:43:41;;;;;;;5.15;1.60;;;2.30;99.90;;;;;;5179063;28;20045;-76
2022/02/01 16:46:14;;;;;;;2.72;1.52;;;;;;;;;;5180838;28;20053;-76
2022/02/01 16:48:47;;;;;;;2.15;1.52;;;;;;;;;;5167214;28;21148;-76
2022/02/01 16:51:21;;;;;;;1.73;1.10;;;;;;;;;;5175795;28;20053;-76
2022/02/01 16:53:57;;;;;;;2.58;1.30;;;;;;;;;;5197747;28;20045;-76
2022/02/01 16:56:50;;;;;;;6.78;1.63;;;;;;;;;;5144416;28;20604;-77
2022/02/01 16:59:25;;;;;;;5.85;1.70;;;;;;;;;;5188547;28;20758;-76
2022/02/01 17:01:59;;;;;;;2.03;1.33;;;;;;;;;;5190394;28;20055;-77
2022/02/01 17:04:31;;;;;;;;;;;2.40;99.90;;;;;;5175155;28;20055;-77
2022/02/01 17:07:04;;;;;;;1.65;1.20;;;;;;;;;;5164890;28;19936;-76
2022/02/01 17:09:37;;;;;;;3.75;1.38;;;;;;;;;;5190521;28;20053;-77
2022/02/01 17:12:20;;;;;;;4.25;3.10;;;;;;;;;;5179456;28;20049;-76
2022/02/01 17:23:03;;;;;;;2.78;1.52;;;;;;;;;;5183467;28;20300;-77
2022/02/01 17:25:36;;;;;;;4.20;1.70;;;;;;;;;;5190420;28;20049;-76
2022/02/01 17:28:08;;;;;;;3.87;1.50;;;;;;;;;;5175286;28;20980;-76
2022/02/01 17:30:41;;;;;;;2.05;1.70;;;;;;;;;;5175768;28;20291;-77
2022/02/01 17:33:13;;;;;;;;;;;2.60;99.90;;;;;;4485653;28;10000024;-77
2022/02/01 17:35:49;;;;;;;2.85;1.50;;;;;;;;;;5183825;28;20368;-78